Terminal Aerodrome Forecast
Issued by NWS Boston, MA

Home | Current Version | Previous Version | Text Only | Print | Product List | Glossary On
Versions: 1 2 3 4 5 6 7 8 9 10 11 12 13 14 15 16 17 18 19 20 21 22 23 24 25 26 27 28 29 30 31 32 33 34
000
FTUS41 KBOX 250539
TAFORH
TAF
KORH 250539Z 2506/2606 23010KT 1/4SM FG OVC002
     FM250800 21015KT 5SM BR OVC003
     FM250900 21016KT 5SM -RA BR OVC003
     FM251200 25014G22KT P6SM OVC008
     FM251400 26014G26KT P6SM BKN025
     FM251800 26018G30KT P6SM BKN050
     FM252100 27016G34KT P6SM SCT090
     FM260000 27013G25KT P6SM SCT250=

USA.gov is the U.S. government's official web portal to all federal, state and local government web resources and services.